createdAt,value
2023-02-27T12:19:56.478Z,1.40
2023-02-27T12:22:32.844Z,0.75
2023-02-27T12:25:12.711Z,1.10
2023-02-27T12:27:54.843Z,1.00
2023-02-27T12:30:28.389Z,1.05
2023-02-27T12:33:32.726Z,1.55
2023-02-27T12:36:01.709Z,1.33
2023-02-27T12:38:29.934Z,1.15
2023-02-27T12:41:30.636Z,1.02
2023-02-27T12:44:03.803Z,1.00
2023-02-27T12:46:57.343Z,1.10
2023-02-27T12:49:40.098Z,0.80
2023-02-27T12:55:26.632Z,1.10
2023-02-27T12:58:44.743Z,1.45
2023-02-27T13:01:27.983Z,1.02
2023-02-27T13:04:28.509Z,0.75
2023-02-27T13:07:05.432Z,1.10
2023-02-27T13:09:38.822Z,0.90
2023-02-27T13:12:43.565Z,0.98
2023-02-27T13:15:21.823Z,1.25
2023-02-27T13:18:15.768Z,1.23
2023-02-27T13:20:58.007Z,0.98
2023-02-27T13:23:55.695Z,0.90
2023-02-27T13:26:24.493Z,0.95
2023-02-27T13:28:51.974Z,1.27
2023-02-27T13:32:00.460Z,1.23
2023-02-27T13:34:33.793Z,1.20
2023-02-27T13:37:04.706Z,1.33
2023-02-27T13:39:45.080Z,1.33
2023-02-27T13:42:36.469Z,1.10
2023-02-27T13:45:04.953Z,1.30
2023-02-27T13:48:01.489Z,1.42
2023-02-27T13:50:28.716Z,1.15
2023-02-27T13:52:56.205Z,0.80
2023-02-27T13:55:30.913Z,1.30
2023-02-27T13:57:59.394Z,0.90
2023-02-27T14:00:29.276Z,1.25
2023-02-27T14:03:30.362Z,0.90
2023-02-27T14:06:00.845Z,0.70
2023-02-27T14:08:29.660Z,1.38
2023-02-27T14:11:24.673Z,1.35
2023-02-27T14:13:54.525Z,1.20
2023-02-27T14:16:42.133Z,1.00
2023-02-27T14:19:36.014Z,1.10
2023-02-27T14:22:03.251Z,1.00
2023-02-27T14:24:49.639Z,1.15
2023-02-27T14:27:29.392Z,1.50
2023-02-27T14:29:57.681Z,1.58
2023-02-27T14:32:30.014Z,1.60
2023-02-27T14:34:57.296Z,1.70
2023-02-27T14:37:26.188Z,1.35
2023-02-27T14:39:54.668Z,1.35
2023-02-27T14:42:36.636Z,1.45
2023-02-27T14:45:04.455Z,1.13
2023-02-27T14:47:35.994Z,1.30
2023-02-27T14:50:05.679Z,1.20
2023-02-27T14:52:40.601Z,1.77
2023-02-27T14:55:29.980Z,1.40
2023-02-27T14:58:10.135Z,1.70
2023-02-27T15:00:41.382Z,1.70
2023-02-27T15:03:22.326Z,1.50
2023-02-27T15:05:50.279Z,1.95
2023-02-27T15:08:25.635Z,1.63
2023-02-27T15:10:53.218Z,1.83
2023-02-27T15:13:28.869Z,2.15
2023-02-27T15:16:18.835Z,1.77
2023-02-27T15:18:49.737Z,1.75
2023-02-27T15:21:17.964Z,1.90
2023-02-27T15:23:53.230Z,1.90
2023-02-27T15:26:20.563Z,2.35
2023-02-27T15:28:47.887Z,1.80
2023-02-27T15:31:19.588Z,2.08
2023-02-27T15:33:46.964Z,1.83
2023-02-27T15:36:22.419Z,2.03
2023-02-27T15:39:15.442Z,1.85
2023-02-27T15:41:48.688Z,2.13
2023-02-27T15:44:17.474Z,1.85
2023-02-27T15:46:45.745Z,2.15
2023-02-27T15:49:18.088Z,2.08
2023-02-27T15:51:54.638Z,2.28
2023-02-27T15:54:22.541Z,2.78
2023-02-27T15:56:49.854Z,2.25
2023-02-27T15:59:17.576Z,2.60
2023-02-27T16:01:44.880Z,2.63
2023-02-27T16:04:38.494Z,2.80
2023-02-27T16:07:07.612Z,2.78
2023-02-27T16:09:35.723Z,2.47
2023-02-27T16:12:13.141Z,2.28
2023-02-27T16:14:44.557Z,2.17
2023-02-27T16:17:29.292Z,2.60
2023-02-27T16:19:57.558Z,2.85
2023-02-27T16:22:26.313Z,2.33
2023-02-27T16:24:54.657Z,2.47
2023-02-27T16:27:26.500Z,2.63
2023-02-27T16:29:55.160Z,2.42
2023-02-27T16:32:25.188Z,2.28
2023-02-27T16:34:53.008Z,2.72
2023-02-27T16:37:27.354Z,2.70
2023-02-27T16:39:54.945Z,2.40
2023-02-27T16:42:22.421Z,3.15
2023-02-27T16:44:49.783Z,2.50
2023-02-27T16:47:17.189Z,2.92
2023-02-27T16:49:46.406Z,2.30
2023-02-27T16:52:13.714Z,2.85
2023-02-27T16:54:40.970Z,3.20
2023-02-27T16:57:09.685Z,2.88
2023-02-27T16:59:44.121Z,2.72
2023-02-27T17:02:13.350Z,2.95
2023-02-27T17:04:44.217Z,3.17
2023-02-27T17:07:15.831Z,3.65
2023-02-27T17:09:44.867Z,2.97
2023-02-27T17:12:12.310Z,3.60
2023-02-27T17:14:39.664Z,3.63
2023-02-27T17:17:07.225Z,3.80
2023-02-27T17:19:38.186Z,4.10
2023-02-27T17:22:05.738Z,3.63
2023-02-27T17:24:33.077Z,3.67
2023-02-27T17:27:00.388Z,3.13
2023-02-27T17:29:28.770Z,3.28
2023-02-27T17:31:57.543Z,3.70
2023-02-27T17:34:25.173Z,3.30
2023-02-27T17:36:53.384Z,2.67
2023-02-27T17:39:20.881Z,2.43
2023-02-27T17:41:48.407Z,3.20
2023-02-27T17:44:15.703Z,3.30
2023-02-27T17:46:43.228Z,3.33
2023-02-27T17:49:10.809Z,3.75
2023-02-27T17:51:38.759Z,4.00
2023-02-27T17:54:08.256Z,4.57
2023-02-27T17:56:37.034Z,4.00
2023-02-27T17:59:05.260Z,3.90
2023-02-27T18:01:32.949Z,3.80
2023-02-27T18:04:00.342Z,3.90
2023-02-27T18:06:28.798Z,3.92
2023-02-27T18:08:56.383Z,3.92
2023-02-27T18:11:24.080Z,3.47
2023-02-27T18:13:51.407Z,3.22
2023-02-27T18:16:19.099Z,3.33
2023-02-27T18:18:46.353Z,3.50
2023-02-27T18:21:15.742Z,2.85
2023-02-27T18:23:43.331Z,3.25
2023-02-27T18:26:27.115Z,3.25
2023-02-27T18:29:00.255Z,2.53
2023-02-27T18:31:30.614Z,2.33
2023-02-27T18:33:58.289Z,3.03
2023-02-27T18:36:26.503Z,2.95
2023-02-27T18:38:54.050Z,3.03
2023-02-27T18:41:21.360Z,3.57
2023-02-27T18:43:48.701Z,3.28
2023-02-27T18:46:16.078Z,3.55
2023-02-27T18:48:44.617Z,3.60
2023-02-27T18:51:14.487Z,2.97
2023-02-27T18:53:44.359Z,3.40
2023-02-27T18:56:12.111Z,3.70
2023-02-27T18:58:39.415Z,4.25
2023-02-27T19:01:07.508Z,4.85
2023-02-27T19:03:35.488Z,4.75
2023-02-27T19:06:02.900Z,5.13
2023-02-27T19:08:30.463Z,4.72
2023-02-27T19:10:58.528Z,5.00
2023-02-27T19:16:07.649Z,4.43
2023-02-27T19:18:35.046Z,3.88
2023-02-27T19:21:07.289Z,4.22
2023-02-27T19:23:36.221Z,3.80
2023-02-27T19:26:03.558Z,4.30
2023-02-27T19:28:30.904Z,4.00
2023-02-27T19:30:58.385Z,4.17
2023-02-27T19:33:25.752Z,3.63
2023-02-27T19:35:53.091Z,3.83
2023-02-27T19:38:20.430Z,3.08
2023-02-27T19:40:47.696Z,3.38
2023-02-27T19:43:15.449Z,3.53
2023-02-27T19:45:42.793Z,3.25
2023-02-27T19:48:12.059Z,3.05
2023-02-27T19:50:40.272Z,3.05
2023-02-27T19:53:08.237Z,3.00
2023-02-27T19:55:35.551Z,3.27
2023-02-27T19:58:03.575Z,3.22
2023-02-27T20:00:31.303Z,2.83
2023-02-27T20:02:58.650Z,3.30
2023-02-27T20:05:26.093Z,3.25
2023-02-27T20:07:53.576Z,3.13
2023-02-27T20:10:21.031Z,3.00
2023-02-27T20:12:48.533Z,3.53
2023-02-27T20:15:15.814Z,2.67
2023-02-27T20:17:43.941Z,2.92
2023-02-27T20:20:11.745Z,2.70
2023-02-27T20:22:42.285Z,2.90
2023-02-27T20:25:10.183Z,2.50
2023-02-27T20:27:37.513Z,2.95
2023-02-27T20:30:05.348Z,2.55
2023-02-27T20:32:32.861Z,2.63
2023-02-27T20:35:00.121Z,2.60
2023-02-27T20:37:29.489Z,3.00
2023-02-27T20:39:57.141Z,2.75
2023-02-27T20:42:24.453Z,3.38
2023-02-27T20:44:53.287Z,2.80
2023-02-27T20:47:20.740Z,3.08
2023-02-27T20:49:48.091Z,3.50
2023-02-27T20:52:15.378Z,3.45
2023-02-27T20:54:42.654Z,3.15
2023-02-27T20:57:09.962Z,3.00
2023-02-27T20:59:37.252Z,3.35
2023-02-27T21:02:06.821Z,4.40
2023-02-27T21:04:42.850Z,4.25
2023-02-27T21:07:11.556Z,4.30
2023-02-27T21:09:38.997Z,4.20
2023-02-27T21:12:06.774Z,4.47
2023-02-27T21:14:33.992Z,3.90
2023-02-27T21:17:01.328Z,4.10
2023-02-27T21:19:28.702Z,4.20
2023-02-27T21:21:56.076Z,3.30
2023-02-27T21:24:23.443Z,3.92
2023-02-27T21:26:51.977Z,4.18
2023-02-27T21:29:20.487Z,4.13
2023-02-27T21:31:49.170Z,4.25
2023-02-27T21:34:29.043Z,4.13
2023-02-27T21:36:56.548Z,4.32
2023-02-27T21:39:26.318Z,3.42
2023-02-27T21:41:53.874Z,3.58
2023-02-27T21:44:21.886Z,3.58
2023-02-27T21:46:49.295Z,3.93
2023-02-27T21:49:17.947Z,3.38
2023-02-27T21:51:45.812Z,4.53
2023-02-27T21:54:13.616Z,3.80
2023-02-27T21:56:41.112Z,3.53
2023-02-27T21:59:09.230Z,2.83
2023-02-27T22:01:36.813Z,3.80
2023-02-27T22:04:04.429Z,3.30
2023-02-27T22:06:32.393Z,3.53
2023-02-27T22:09:01.530Z,3.60
2023-02-27T22:11:29.196Z,3.67
2023-02-27T22:13:56.795Z,3.35
2023-02-27T22:16:24.208Z,4.03
2023-02-27T22:18:51.926Z,3.17
2023-02-27T22:21:21.676Z,3.03
2023-02-27T22:23:49.061Z,3.40
2023-02-27T22:26:18.673Z,3.42
2023-02-27T22:28:46.126Z,2.97
2023-02-27T22:31:15.341Z,3.03
2023-02-27T22:33:43.383Z,3.20
2023-02-27T22:36:15.300Z,2.77
2023-02-27T22:38:43.021Z,2.55
2023-02-27T22:41:11.874Z,3.33
2023-02-27T22:43:39.875Z,3.50
2023-02-27T22:46:08.077Z,3.08
2023-02-27T22:48:35.737Z,2.93
2023-02-27T22:51:07.378Z,3.05
2023-02-27T22:53:38.445Z,2.50
2023-02-27T22:56:10.348Z,3.10
2023-02-27T22:58:38.055Z,3.10
2023-02-27T23:01:09.356Z,2.53
2023-02-27T23:03:37.188Z,3.20
2023-02-27T23:06:05.800Z,3.03
2023-02-27T23:08:33.333Z,2.80
2023-02-27T23:11:00.678Z,3.20
2023-02-27T23:13:28.844Z,3.33
2023-02-27T23:15:56.663Z,3.08
2023-02-27T23:18:24.301Z,3.10
2023-02-27T23:20:51.626Z,2.38
2023-02-27T23:23:18.903Z,2.40
2023-02-27T23:25:46.172Z,2.70
2023-02-27T23:28:13.411Z,2.30
2023-02-27T23:30:40.732Z,2.95
2023-02-27T23:33:08.041Z,2.33
2023-02-27T23:35:35.398Z,2.45
2023-02-27T23:38:02.746Z,2.77
2023-02-27T23:40:30.087Z,2.40
2023-02-27T23:43:15.891Z,2.72
2023-02-27T23:45:43.184Z,2.40
2023-02-27T23:48:10.480Z,2.63
2023-02-27T23:50:39.473Z,2.53
2023-02-27T23:53:07.034Z,2.35
2023-02-27T23:55:35.412Z,2.35
2023-02-27T23:58:04.493Z,2.40
